Terminal Aerodrome Forecast
Issued by NWS

Home | Current Version | Previous Version | Text Only | Print | Product List | Glossary On
Versions: 1 2 3 4 5 6 7 8 9 10 11 12 13 14 15 16 17 18
000
FTUS46 KHNX 212320
TAFMER
TAF
KMER 212320Z 2200/2224 34008KT P6SM SCT020 BKN200
      TEMPO 2200/2203 BKN020
     FM220300 VRB03KT 4SM BR BKN020
     FM220600 VRB03KT 1SM BR BKN007
     FM220800 VRB03KT 1/4SM FG VV001
     FM221800 VRB03KT 1SM BR OVC005=

USA.gov is the U.S. government's official web portal to all federal, state and local government web resources and services.